Time;durP1;ratioP1;P1;durP2;ratioP2;P2;SDS_P1;SDS_P2;PMS_P1;PMS_P2;Temp;Humidity;BMP_temperature;BMP_pressure;BME280_temperature;BME280_humidity;BME280_pressure;Samples;Min_cycle;Max_cycle;Signal;HPM_P1;HPM_P2
2022/03/10 00:01:46;;;;;;;3.63;3.03;;;;;;;;;;5049029;28;20539;-81
2022/03/10 00:04:13;;;;;;;3.10;2.80;;;;;;;;;;5049250;28;20535;-81
2022/03/10 00:06:41;;;;;;;4.33;2.97;;;;;;;;;;5048946;28;20476;-81
2022/03/10 00:09:08;;;;;;;2.47;2.27;;;;;;;;;;5049144;28;20746;-81
2022/03/10 00:11:35;;;;;;;3.83;3.00;;;;;;;;;;5049007;28;20293;-81
2022/03/10 00:14:02;;;;;;;3.60;3.13;;;;;;;;;;5049138;28;20252;-81
2022/03/10 00:16:31;;;;;;;2.97;2.77;;;;;;;;;;5048726;28;20657;-81
2022/03/10 00:18:58;;;;;;;3.90;3.60;;;;;;;;;;5049309;28;20237;-81
2022/03/10 00:21:26;;;;;;;3.70;3.40;;;;;;;;;;5048954;28;20206;-81
2022/03/10 00:23:53;;;;;;;4.23;3.63;;;;;;;;;;5048984;28;20534;-81
2022/03/10 00:26:20;;;;;;;3.00;2.80;;;;;;;;;;5048473;28;20570;-81
2022/03/10 00:28:47;;;;;;;3.30;3.00;;;;;;;;;;5048910;28;20605;-81
2022/03/10 00:31:14;;;;;;;4.73;3.03;;;;;;;;;;5048305;28;20484;-80
2022/03/10 00:33:43;;;;;;;4.10;3.27;;;;;;;;;;5048297;28;20497;-81
2022/03/10 00:36:10;;;;;;;4.23;3.53;;;;;;;;;;5049133;28;20270;-81
2022/03/10 00:38:37;;;;;;;4.33;3.83;;;;;;;;;;5048571;28;20531;-81
2022/03/10 00:41:05;;;;;;;3.63;3.33;;;;;;;;;;5048670;28;20540;-81
2022/03/10 00:43:32;;;;;;;3.87;3.53;;;;;;;;;;5048339;28;20451;-81
2022/03/10 00:45:59;;;;;;;5.33;3.83;;;;;;;;;;5048920;28;20468;-81
2022/03/10 00:48:26;;;;;;;3.40;3.10;;;;;;;;;;5048428;28;20451;-80
2022/03/10 00:50:55;;;;;;;3.67;3.37;;;;;;;;;;5046432;28;20995;-81
2022/03/10 00:53:22;;;;;;;4.40;3.70;;;;;;;;;;5047754;28;20540;-81
2022/03/10 00:55:50;;;;;;;4.63;3.40;;;;;;;;;;5048505;28;20536;-81
2022/03/10 00:58:17;;;;;;;4.33;3.63;;;;;;;;;;5048615;28;20831;-81
2022/03/10 01:00:44;;;;;;;2.90;2.70;;;;;;;;;;5048690;28;20467;-81
2022/03/10 01:03:11;;;;;;;3.70;3.10;;;;;;;;;;5048222;28;20535;-81
2022/03/10 01:05:38;;;;;;;5.03;3.47;;;;;;;;;;5048731;28;20517;-81
2022/03/10 01:08:07;;;;;;;3.17;2.87;;;;;;;;;;5048109;28;20518;-81
2022/03/10 01:10:35;;;;;;;3.10;2.80;;;;;;;;;;5048364;28;20452;-81
2022/03/10 01:13:02;;;;;;;4.30;3.10;;;;;;;;;;5048183;28;20451;-81
2022/03/10 01:15:30;;;;;;;3.40;3.10;;;;;;;;;;5048336;28;20534;-81
2022/03/10 01:17:58;;;;;;;4.83;3.63;;;;;;;;;;5047714;28;20472;-81
2022/03/10 01:20:26;;;;;;;3.20;2.90;;;;;;;;;;5048263;28;20305;-80
2022/03/10 01:22:53;;;;;;;6.37;3.50;;;;;;;;;;5048074;28;20440;-81
2022/03/10 01:25:22;;;;;;;3.47;3.17;;;;;;;;;;5048196;28;20531;-81
2022/03/10 01:27:49;;;;;;;4.47;3.73;;;;;;;;;;5048018;28;20559;-81
2022/03/10 01:30:16;;;;;;;3.60;3.30;;;;;;;;;;5048173;28;20440;-81
2022/03/10 01:32:44;;;;;;;4.33;3.80;;;;;;;;;;5047902;28;20531;-81
2022/03/10 01:35:12;;;;;;;3.73;3.43;;;;;;;;;;5048025;28;20517;-80
2022/03/10 01:37:39;;;;;;;5.63;3.30;;;;;;;;;;5047836;28;20528;-81
2022/03/10 01:40:08;;;;;;;3.83;3.40;;;;;;;;;;5048014;28;20527;-81
2022/03/10 01:42:37;;;;;;;3.50;3.20;;;;;;;;;;5047802;28;20445;-81
2022/03/10 01:45:05;;;;;;;3.23;3.03;;;;;;;;;;5050366;28;20539;-81
2022/03/10 01:47:33;;;;;;;3.70;3.37;;;;;;;;;;5051148;28;20534;-81
2022/03/10 01:50:00;;;;;;;3.87;3.47;;;;;;;;;;5051586;28;20512;-81
2022/03/10 01:52:28;;;;;;;4.03;3.63;;;;;;;;;;5051248;28;20816;-80
2022/03/10 01:54:56;;;;;;;3.77;3.47;;;;;;;;;;5051102;28;20493;-80
2022/03/10 01:57:24;;;;;;;3.67;3.37;;;;;;;;;;5050869;28;20448;-81
2022/03/10 01:59:53;;;;;;;4.13;3.40;;;;;;;;;;5051137;28;20440;-81
2022/03/10 02:02:20;;;;;;;3.30;3.00;;;;;;;;;;5050957;28;20547;-81
2022/03/10 02:04:48;;;;;;;3.63;3.03;;;;;;;;;;5051030;28;20489;-81
2022/03/10 02:12:40;;;;;;;4.10;3.20;;;;;;;;;;5050322;28;20420;-81
2022/03/10 02:17:58;;;;;;;3.33;3.03;;;;;;;;;;5030329;28;20476;-81
2022/03/10 02:20:25;;;;;;;3.77;3.40;;;;;;;;;;5030914;28;20529;-81
2022/03/10 02:22:54;;;;;;;3.17;2.87;;;;;;;;;;5030579;28;20533;-81
2022/03/10 02:25:22;;;;;;;3.40;3.10;;;;;;;;;;5030455;28;20453;-81
2022/03/10 02:27:51;;;;;;;3.20;2.90;;;;;;;;;;5030571;28;21036;-81
2022/03/10 02:30:19;;;;;;;4.27;3.80;;;;;;;;;;5030732;28;20445;-79
2022/03/10 02:32:47;;;;;;;3.70;3.40;;;;;;;;;;5030597;28;20484;-80
2022/03/10 02:35:15;;;;;;;4.37;3.97;;;;;;;;;;5030417;28;20983;-80
2022/03/10 02:37:42;;;;;;;4.03;3.63;;;;;;;;;;5030126;28;20453;-81
2022/03/10 02:40:12;;;;;;;4.50;3.80;;;;;;;;;;5030108;28;20536;-80
2022/03/10 02:42:40;;;;;;;5.63;3.40;;;;;;;;;;5030472;28;20450;-80
2022/03/10 02:45:09;;;;;;;5.53;4.00;;;;;;;;;;5030618;28;20452;-80
2022/03/10 02:47:36;;;;;;;4.10;3.70;;;;;;;;;;5029785;28;20577;-80
2022/03/10 02:50:06;;;;;;;3.97;3.67;;;;;;;;;;5030378;28;20456;-80
2022/03/10 02:52:35;;;;;;;4.27;3.87;;;;;;;;;;5029937;28;20441;-80
2022/03/10 02:55:03;;;;;;;4.97;4.17;;;;;;;;;;5030063;28;20513;-80
2022/03/10 02:57:32;;;;;;;3.70;3.10;;;;;;;;;;5029777;28;20445;-79
2022/03/10 03:00:00;;;;;;;4.30;3.90;;;;;;;;;;5030423;28;20524;-80
2022/03/10 03:02:27;;;;;;;3.67;3.30;;;;;;;;;;5030005;28;20449;-81
2022/03/10 03:04:54;;;;;;;4.40;3.27;;;;;;;;;;5030051;28;20529;-81
2022/03/10 03:07:21;;;;;;;5.03;4.63;;;;;;;;;;5029512;28;20469;-81
2022/03/10 03:09:49;;;;;;;4.57;3.77;;;;;;;;;;5029597;28;20481;-80
2022/03/10 03:12:16;;;;;;;4.90;4.40;;;;;;;;;;5029504;28;20483;-80
2022/03/10 03:14:45;;;;;;;4.43;3.97;;;;;;;;;;5029706;28;20441;-81
2022/03/10 03:17:12;;;;;;;8.30;4.27;;;;;;;;;;5029385;28;20477;-80
2022/03/10 03:19:39;;;;;;;5.47;4.10;;;;;;;;;;5030021;28;20475;-80
2022/03/10 03:22:06;;;;;;;6.33;4.57;;;;;;;;;;5029621;28;20525;-80
2022/03/10 03:24:34;;;;;;;4.20;3.90;;;;;;;;;;5029558;28;20445;-80
2022/03/10 03:27:01;;;;;;;5.53;4.13;;;;;;;;;;5029462;28;20512;-80
2022/03/10 03:29:28;;;;;;;3.93;3.53;;;;;;;;;;5029453;28;20502;-79
2022/03/10 03:31:57;;;;;;;4.70;3.70;;;;;;;;;;5029757;28;20531;-80
2022/03/10 03:34:24;;;;;;;5.10;4.40;;;;;;;;;;5029769;28;20536;-81
2022/03/10 03:36:52;;;;;;;4.43;4.03;;;;;;;;;;5029368;28;20450;-80
2022/03/10 03:39:19;;;;;;;5.13;4.60;;;;;;;;;;5029520;28;20521;-81
2022/03/10 03:41:46;;;;;;;4.53;4.13;;;;;;;;;;5029017;28;20456;-82
2022/03/10 03:44:14;;;;;;;4.93;4.43;;;;;;;;;;5029920;28;20890;-82
2022/03/10 03:46:41;;;;;;;5.27;4.37;;;;;;;;;;5029147;28;20910;-81
2022/03/10 03:49:10;;;;;;;4.53;3.53;;;;;;;;;;5029473;28;20460;-82
2022/03/10 03:51:38;;;;;;;4.53;4.13;;;;;;;;;;5028960;28;20900;-82
2022/03/10 03:54:07;;;;;;;6.20;4.77;;;;;;;;;;5029330;28;20449;-82
2022/03/10 03:56:34;;;;;;;5.73;5.07;;;;;;;;;;5029418;28;20887;-81
2022/03/10 03:59:01;;;;;;;5.80;4.03;;;;;;;;;;5029235;28;20437;-82
2022/03/10 04:01:29;;;;;;;4.30;3.90;;;;;;;;;;5028677;28;20437;-81
2022/03/10 04:03:56;;;;;;;5.47;4.73;;;;;;;;;;5028822;28;20447;-82
2022/03/10 04:06:26;;;;;;;5.00;4.60;;;;;;;;;;5028173;28;20533;-81
2022/03/10 04:08:53;;;;;;;5.77;4.07;;;;;;;;;;5029321;28;20473;-81
2022/03/10 04:11:20;;;;;;;4.70;3.87;;;;;;;;;;5028712;28;20445;-82
2022/03/10 04:13:47;;;;;;;4.03;3.73;;;;;;;;;;5029059;28;20825;-82
2022/03/10 04:16:15;;;;;;;4.93;4.43;;;;;;;;;;5026149;28;20449;-82
2022/03/10 04:18:43;;;;;;;3.83;3.43;;;;;;;;;;5027796;28;20918;-81
2022/03/10 04:21:10;;;;;;;5.20;4.07;;;;;;;;;;5027979;28;20449;-81
2022/03/10 04:23:44;;;;;;;4.60;4.00;;;;;;;;;;5028032;28;20833;-81
2022/03/10 04:26:12;;;;;;;5.80;4.67;;;;;;;;;;5027924;28;20985;-81
2022/03/10 04:28:39;;;;;;;5.73;4.80;;;;;;;;;;5027407;28;20481;-81
2022/03/10 04:31:06;;;;;;;4.30;3.50;;;;;;;;;;5028271;28;20468;-81
2022/03/10 04:33:33;;;;;;;4.93;4.27;;;;;;;;;;5028167;28;20444;-81
2022/03/10 04:36:01;;;;;;;4.93;4.37;;;;;;;;;;5027818;28;20445;-80
2022/03/10 04:38:29;;;;;;;4.00;3.60;;;;;;;;;;5027968;28;20450;-81
2022/03/10 04:40:57;;;;;;;4.70;4.30;;;;;;;;;;5027844;28;20536;-81
2022/03/10 04:43:25;;;;;;;4.90;3.97;;;;;;;;;;5027901;28;20544;-81
2022/03/10 04:45:52;;;;;;;5.13;4.50;;;;;;;;;;5027852;28;20905;-81
2022/03/10 04:48:19;;;;;;;4.93;4.47;;;;;;;;;;5027552;28;21024;-81
2022/03/10 04:50:47;;;;;;;5.20;3.77;;;;;;;;;;5027947;28;20456;-81
2022/03/10 04:53:15;;;;;;;4.53;3.77;;;;;;;;;;5027467;28;20483;-81
2022/03/10 04:55:42;;;;;;;6.07;5.03;;;;;;;;;;5026574;28;20441;-83
2022/03/10 04:58:11;;;;;;;5.40;4.27;;;;;;;;;;5027594;28;20818;-83
2022/03/10 05:00:38;;;;;;;4.57;4.10;;;;;;;;;;5027834;28;20457;-81
2022/03/10 05:03:05;;;;;;;6.87;5.90;;;;;;;;;;5027658;28;20445;-82
2022/03/10 05:05:33;;;;;;;6.20;5.60;;;;;;;;;;5027490;28;20448;-82
2022/03/10 05:08:00;;;;;;;6.23;4.23;;;;;;;;;;5026990;28;21096;-81
2022/03/10 05:10:28;;;;;;;4.60;4.20;;;;;;;;;;5027307;28;20536;-81
2022/03/10 05:12:57;;;;;;;6.07;4.60;;;;;;;;;;5027406;28;20501;-81
2022/03/10 05:15:28;;;;;;;5.90;4.90;;;;;;;;;;5027478;28;20453;-82
2022/03/10 05:17:55;;;;;;;4.40;4.00;;;;;;;;;;5027833;28;20489;-81
2022/03/10 05:20:24;;;;;;;5.17;4.20;;;;;;;;;;5030577;28;20536;-81
2022/03/10 05:22:52;;;;;;;5.20;4.17;;;;;;;;;;5030511;28;20441;-81
2022/03/10 05:25:20;;;;;;;4.57;4.17;;;;;;;;;;5031715;28;20540;-82
2022/03/10 05:27:48;;;;;;;5.00;4.40;;;;;;;;;;5031819;28;20572;-82
2022/03/10 05:30:18;;;;;;;4.60;4.10;;;;;;;;;;5031454;28;20548;-82
2022/03/10 05:32:47;;;;;;;6.50;4.87;;;;;;;;;;5032232;28;20469;-81
2022/03/10 05:35:16;;;;;;;4.53;4.13;;;;;;;;;;5031840;28;20564;-82
2022/03/10 05:37:44;;;;;;;4.37;3.97;;;;;;;;;;5031677;28;20469;-82
2022/03/10 05:40:13;;;;;;;4.77;4.27;;;;;;;;;;5031357;28;20532;-81
2022/03/10 05:42:41;;;;;;;5.70;4.13;;;;;;;;;;5031417;28;20465;-81
2022/03/10 05:45:09;;;;;;;4.90;4.30;;;;;;;;;;5031589;28;20892;-81
2022/03/10 05:47:38;;;;;;;4.90;4.40;;;;;;;;;;5030909;28;20958;-81
2022/03/10 05:50:08;;;;;;;6.20;4.70;;;;;;;;;;5031699;28;20544;-82
2022/03/10 05:52:36;;;;;;;6.47;5.30;;;;;;;;;;5031780;28;20514;-81
2022/03/10 05:55:03;;;;;;;6.20;5.20;;;;;;;;;;5031057;28;20477;-81
2022/03/10 05:57:30;;;;;;;5.47;4.60;;;;;;;;;;5031470;28;20520;-82
2022/03/10 05:59:57;;;;;;;6.77;4.47;;;;;;;;;;5031282;28;20536;-81
2022/03/10 06:02:25;;;;;;;7.70;4.90;;;;;;;;;;5030862;28;20544;-81
2022/03/10 06:04:52;;;;;;;5.57;4.67;;;;;;;;;;5031136;28;20476;-82
2022/03/10 06:07:21;;;;;;;5.93;5.20;;;;;;;;;;5030885;28;20532;-82
2022/03/10 06:09:48;;;;;;;5.23;4.27;;;;;;;;;;5031040;28;21016;-82
2022/03/10 06:12:21;;;;;;;5.00;4.50;;;;;;;;;;5030730;28;20448;-82
2022/03/10 06:14:48;;;;;;;5.53;5.03;;;;;;;;;;5031096;28;20441;-82
2022/03/10 06:17:15;;;;;;;7.10;6.37;;;;;;;;;;5030576;28;20477;-82
2022/03/10 06:19:42;;;;;;;7.20;5.83;;;;;;;;;;5031841;28;20199;-82
2022/03/10 06:22:10;;;;;;;7.03;5.40;;;;;;;;;;5039429;28;20949;-83
2022/03/10 06:24:38;;;;;;;6.87;6.17;;;;;;;;;;5030607;28;20445;-82
2022/03/10 06:27:06;;;;;;;7.00;6.23;;;;;;;;;;5030650;28;20445;-82
2022/03/10 06:29:33;;;;;;;5.60;4.93;;;;;;;;;;5029787;28;20473;-83
2022/03/10 06:32:00;;;;;;;6.93;5.10;;;;;;;;;;5030481;28;20449;-82
2022/03/10 06:34:27;;;;;;;5.70;5.10;;;;;;;;;;5030750;28;20442;-83
2022/03/10 06:36:56;;;;;;;6.53;4.50;;;;;;;;;;5030605;28;21275;-82
2022/03/10 06:39:23;;;;;;;5.10;4.60;;;;;;;;;;5030558;28;20938;-83
2022/03/10 06:41:52;;;;;;;5.30;4.80;;;;;;;;;;5030458;28;20445;-82
2022/03/10 06:44:19;;;;;;;4.37;3.97;;;;;;;;;;5030359;28;20445;-82
2022/03/10 06:46:46;;;;;;;5.90;4.60;;;;;;;;;;5041549;28;20460;-82
2022/03/10 06:49:14;;;;;;;5.00;4.33;;;;;;;;;;5030317;28;20473;-82
2022/03/10 06:51:41;;;;;;;4.57;4.17;;;;;;;;;;5030297;28;20446;-82
2022/03/10 06:54:08;;;;;;;4.53;4.13;;;;;;;;;;5030647;28;20230;-83
2022/03/10 06:56:35;;;;;;;5.60;4.77;;;;;;;;;;5029921;28;20948;-82
2022/03/10 06:59:04;;;;;;;9.50;8.07;;;;;;;;;;5029868;28;20858;-82
2022/03/10 07:01:31;;;;;;;8.27;6.73;;;;;;;;;;5030153;28;20198;-83
2022/03/10 07:03:59;;;;;;;18.77;13.83;;;;;;;;;;5030108;28;20206;-83
2022/03/10 07:06:26;;;;;;;22.97;14.80;;;;;;;;;;5030130;28;20449;-82
2022/03/10 07:08:53;;;;;;;9.10;6.77;;;;;;;;;;5029929;28;20229;-82
2022/03/10 07:11:21;;;;;;;10.40;7.10;;;;;;;;;;5029990;28;20949;-83
2022/03/10 07:13:48;;;;;;;10.20;8.37;;;;;;;;;;5029954;28;20442;-82
2022/03/10 07:16:17;;;;;;;5.50;4.97;;;;;;;;;;5029897;28;20520;-82
2022/03/10 07:18:50;;;;;;;8.43;5.60;;;;;;;;;;5030019;28;20180;-83
2022/03/10 07:21:18;;;;;;;5.30;4.77;;;;;;;;;;5029920;28;20526;-83
2022/03/10 07:23:45;;;;;;;4.57;3.93;;;;;;;;;;5028499;28;20198;-82
2022/03/10 07:26:13;;;;;;;4.70;4.20;;;;;;;;;;5028506;28;20199;-82
2022/03/10 07:28:41;;;;;;;5.00;4.50;;;;;;;;;;5029994;28;20485;-83
2022/03/10 07:31:08;;;;;;;4.37;3.97;;;;;;;;;;5030127;28;20210;-82
2022/03/10 07:33:37;;;;;;;5.17;4.10;;;;;;;;;;5029890;28;20686;-82
2022/03/10 07:36:04;;;;;;;4.53;4.03;;;;;;;;;;5029728;28;20536;-83
2022/03/10 07:38:31;;;;;;;3.87;3.57;;;;;;;;;;5029557;28;20191;-83
2022/03/10 07:40:59;;;;;;;4.60;4.20;;;;;;;;;;5029936;28;20210;-82
2022/03/10 07:43:26;;;;;;;5.00;4.23;;;;;;;;;;5029946;28;20203;-83
2022/03/10 07:45:53;;;;;;;5.83;4.60;;;;;;;;;;5029505;28;20450;-83
2022/03/10 07:48:21;;;;;;;4.57;3.97;;;;;;;;;;5029280;28;20229;-83
2022/03/10 07:50:49;;;;;;;4.20;3.67;;;;;;;;;;5029792;28;20238;-83
2022/03/10 07:53:19;;;;;;;4.60;4.10;;;;;;;;;;5029316;28;20195;-82
2022/03/10 07:55:46;;;;;;;4.33;3.93;;;;;;;;;;5029211;28;20206;-82
2022/03/10 07:58:14;;;;;;;4.90;4.40;;;;;;;;;;5029743;28;20675;-83
2022/03/10 08:00:41;;;;;;;4.73;4.33;;;;;;;;;;5046580;28;20289;-82
2022/03/10 08:03:09;;;;;;;8.77;5.20;;;;;;;;;;5048668;28;20202;-83
2022/03/10 08:05:37;;;;;;;5.77;4.60;;;;;;;;;;5048612;28;20559;-83
2022/03/10 08:08:06;;;;;;;7.43;5.93;;;;;;;;;;5049161;28;20201;-82
2022/03/10 08:10:33;;;;;;;5.27;4.47;;;;;;;;;;5049480;28;20198;-82
2022/03/10 08:13:01;;;;;;;6.50;5.57;;;;;;;;;;5048808;28;20205;-82
2022/03/10 08:15:28;;;;;;;5.60;5.07;;;;;;;;;;5048833;28;20205;-82
2022/03/10 08:17:55;;;;;;;4.20;3.73;;;;;;;;;;5047999;28;20270;-82
2022/03/10 08:20:24;;;;;;;6.57;5.47;;;;;;;;;;5049258;28;20205;-82
2022/03/10 08:22:51;;;;;;;5.70;5.20;;;;;;;;;;5048703;28;20254;-82
2022/03/10 08:25:20;;;;;;;6.23;4.90;;;;;;;;;;5049180;28;20198;-81
2022/03/10 08:27:48;;;;;;;10.10;4.63;;;;;;;;;;5048924;28;20198;-82
2022/03/10 08:30:16;;;;;;;5.00;4.50;;;;;;;;;;5048913;28;20226;-82
2022/03/10 08:32:44;;;;;;;5.37;4.87;;;;;;;;;;5048298;28;20202;-82
2022/03/10 08:35:11;;;;;;;7.67;6.90;;;;;;;;;;5048577;28;20198;-82
2022/03/10 08:37:38;;;;;;;6.13;4.63;;;;;;;;;;5048625;28;20202;-80
2022/03/10 08:40:07;;;;;;;4.57;4.13;;;;;;;;;;5048670;28;20201;-81
2022/03/10 08:42:36;;;;;;;8.07;5.23;;;;;;;;;;5048974;28;20221;-81
2022/03/10 08:45:04;;;;;;;5.47;4.97;;;;;;;;;;5048488;28;20190;-81
2022/03/10 08:47:32;;;;;;;5.47;5.00;;;;;;;;;;5048506;28;20205;-81
2022/03/10 08:49:59;;;;;;;5.97;5.37;;;;;;;;;;5048657;28;20467;-81
2022/03/10 08:52:27;;;;;;;5.13;4.73;;;;;;;;;;5048630;28;20248;-81
2022/03/10 08:54:54;;;;;;;4.80;4.40;;;;;;;;;;5051937;28;20234;-81
2022/03/10 08:57:21;;;;;;;4.87;4.40;;;;;;;;;;5052413;28;20209;-81
2022/03/10 08:59:50;;;;;;;5.13;4.73;;;;;;;;;;5052223;28;20240;-80
2022/03/10 09:02:18;;;;;;;5.17;4.77;;;;;;;;;;5052027;28;20205;-81
2022/03/10 09:04:45;;;;;;;4.83;4.43;;;;;;;;;;5052124;28;20193;-80
2022/03/10 09:07:12;;;;;;;6.73;5.40;;;;;;;;;;5051865;28;20198;-81
2022/03/10 09:09:40;;;;;;;5.63;4.97;;;;;;;;;;5051920;28;20225;-81
2022/03/10 09:12:07;;;;;;;7.20;6.60;;;;;;;;;;5051680;28;20576;-80
2022/03/10 09:14:35;;;;;;;3.70;3.40;;;;;;;;;;5052021;28;20583;-81
2022/03/10 09:17:03;;;;;;;5.57;5.00;;;;;;;;;;5051595;28;20238;-80
2022/03/10 09:19:31;;;;;;;4.53;4.13;;;;;;;;;;5052078;28;20224;-81
2022/03/10 09:21:59;;;;;;;5.03;4.40;;;;;;;;;;5051621;28;20207;-80
2022/03/10 09:24:26;;;;;;;4.87;4.37;;;;;;;;;;5051687;28;20205;-80
2022/03/10 09:26:53;;;;;;;5.77;5.17;;;;;;;;;;5051568;28;20709;-80
2022/03/10 09:29:20;;;;;;;5.10;4.67;;;;;;;;;;5051544;28;20587;-80
2022/03/10 09:31:47;;;;;;;4.07;3.77;;;;;;;;;;5051436;28;20190;-80
2022/03/10 09:34:16;;;;;;;4.93;4.23;;;;;;;;;;5051701;28;20346;-80
2022/03/10 09:36:43;;;;;;;4.37;3.73;;;;;;;;;;5051714;28;20199;-80
2022/03/10 09:39:11;;;;;;;4.30;3.90;;;;;;;;;;5051816;28;20390;-81
2022/03/10 09:41:39;;;;;;;4.87;4.30;;;;;;;;;;5051138;28;20223;-80
2022/03/10 09:44:12;;;;;;;4.77;3.97;;;;;;;;;;5051512;28;20202;-81
2022/03/10 09:46:40;;;;;;;5.73;4.13;;;;;;;;;;5051388;28;20193;-80
2022/03/10 09:49:07;;;;;;;4.57;3.93;;;;;;;;;;5051003;28;20235;-81
2022/03/10 09:51:36;;;;;;;4.60;4.20;;;;;;;;;;5051266;28;20208;-80
2022/03/10 09:54:03;;;;;;;7.03;5.73;;;;;;;;;;5051275;28;20232;-81
2022/03/10 09:56:30;;;;;;;7.10;5.80;;;;;;;;;;5051429;28;20606;-80
2022/03/10 09:58:58;;;;;;;4.87;4.47;;;;;;;;;;5050855;28;20194;-80
2022/03/10 10:01:25;;;;;;;5.27;4.77;;;;;;;;;;5051100;28;20202;-80
2022/03/10 10:03:52;;;;;;;6.83;5.13;;;;;;;;;;5050619;28;20202;-80
2022/03/10 10:06:19;;;;;;;4.90;4.50;;;;;;;;;;5050291;28;20209;-80
2022/03/10 10:08:54;;;;;;;5.97;5.33;;;;;;;;;;5050792;28;20202;-80
2022/03/10 10:11:31;;;;;;;5.40;4.90;;;;;;;;;;5051210;28;20547;-80
2022/03/10 10:13:58;;;;;;;5.87;4.97;;;;;;;;;;5050958;28;20182;-80
2022/03/10 10:16:25;;;;;;;4.43;4.00;;;;;;;;;;5050723;28;20328;-80
2022/03/10 10:18:56;;;;;;;4.50;4.10;;;;;;;;;;5050697;28;20224;-80
2022/03/10 10:21:24;;;;;;;7.53;5.83;;;;;;;;;;5050878;28;20194;-80
2022/03/10 10:23:55;;;;;;;5.30;4.80;;;;;;;;;;5050783;28;20202;-80
2022/03/10 10:26:26;;;;;;;5.03;4.53;;;;;;;;;;5050798;28;20189;-80
2022/03/10 10:28:54;;;;;;;5.57;4.40;;;;;;;;;;5050376;28;20190;-80
2022/03/10 10:31:24;;;;;;;5.77;4.90;;;;;;;;;;5050601;28;20288;-80
2022/03/10 10:34:00;;;;;;;6.13;5.47;;;;;;;;;;5050547;28;20194;-80
2022/03/10 10:36:29;;;;;;;5.13;4.63;;;;;;;;;;5050726;28;20202;-80
2022/03/10 10:38:59;;;;;;;4.93;4.43;;;;;;;;;;5050271;28;20671;-80
2022/03/10 10:41:27;;;;;;;4.67;4.27;;;;;;;;;;5050555;28;20202;-80
2022/03/10 10:43:56;;;;;;;4.80;4.33;;;;;;;;;;5050416;28;20701;-80
2022/03/10 10:46:25;;;;;;;5.60;4.63;;;;;;;;;;5050413;28;20281;-80
2022/03/10 10:48:53;;;;;;;5.03;4.53;;;;;;;;;;5050642;28;20281;-80
2022/03/10 10:51:29;;;;;;;4.57;4.17;;;;;;;;;;5050271;28;20229;-80
2022/03/10 10:53:58;;;;;;;6.20;5.60;;;;;;;;;;5050620;28;20201;-81
2022/03/10 10:56:28;;;;;;;7.23;5.87;;;;;;;;;;5050851;28;20201;-80
2022/03/10 10:58:56;;;;;;;6.23;5.53;;;;;;;;;;5050326;28;20638;-80
2022/03/10 11:01:31;;;;;;;7.30;5.57;;;;;;;;;;5050076;28;20195;-81
2022/03/10 11:03:58;;;;;;;5.83;4.70;;;;;;;;;;5050446;28;20201;-81
2022/03/10 11:06:26;;;;;;;6.03;5.43;;;;;;;;;;5050171;28;20233;-81
2022/03/10 11:08:53;;;;;;;5.40;4.93;;;;;;;;;;5050139;28;20250;-81
2022/03/10 11:11:22;;;;;;;5.77;5.07;;;;;;;;;;5049955;28;20226;-81
2022/03/10 11:13:50;;;;;;;6.10;5.50;;;;;;;;;;5050254;28;20201;-81
2022/03/10 11:16:18;;;;;;;6.43;5.83;;;;;;;;;;5049452;28;20666;-81
2022/03/10 11:18:50;;;;;;;5.97;5.33;;;;;;;;;;5049765;28;20734;-81
2022/03/10 11:21:57;;;;;;;8.17;5.33;;;;;;;;;;5050285;28;20231;-81
2022/03/10 11:25:11;;;;;;;5.43;4.93;;;;;;;;;;4988886;28;20200;-81
2022/03/10 11:27:44;;;;;;;8.53;6.07;;;;;;;;;;4986859;28;20615;-81
2022/03/10 11:30:12;;;;;;;5.43;4.93;;;;;;;;;;4988571;28;20796;-82
2022/03/10 11:32:39;;;;;;;5.77;4.40;;;;;;;;;;4988839;28;20579;-81
2022/03/10 11:35:07;;;;;;;4.97;4.47;;;;;;;;;;4988475;28;20230;-81
2022/03/10 11:37:53;;;;;;;4.57;4.17;;;;;;;;;;4988268;28;20707;-82
2022/03/10 11:40:39;;;;;;;7.13;5.80;;;;;;;;;;4988459;28;20215;-82
2022/03/10 11:43:08;;;;;;;12.23;8.60;;;;;;;;;;4988399;28;20247;-81
2022/03/10 11:45:35;;;;;;;7.33;5.37;;;;;;;;;;4988158;28;20265;-81
2022/03/10 11:48:33;;;;;;;7.17;5.53;;;;;;;;;;4988055;28;20204;-82
2022/03/10 11:51:09;;;;;;;10.60;7.00;;;;;;;;;;4988227;28;20215;-82
2022/03/10 11:53:55;;;;;;;6.30;5.70;;;;;;;;;;4988312;28;20275;-82
2022/03/10 11:56:33;;;;;;;4.50;4.10;;;;;;;;;;5047744;28;20212;-82
2022/03/10 11:59:20;;;;;;;5.17;4.67;;;;;;;;;;5049352;28;20182;-82
2022/03/10 12:01:47;;;;;;;8.17;6.80;;;;;;;;;;5049316;28;20215;-81
2022/03/10 12:04:16;;;;;;;7.47;6.33;;;;;;;;;;5049244;28;20213;-82
2022/03/10 12:06:49;;;;;;;5.97;5.33;;;;;;;;;;5048873;28;20198;-81
2022/03/10 12:09:27;;;;;;;7.03;5.60;;;;;;;;;;5049260;28;20202;-81
2022/03/10 12:11:55;;;;;;;6.40;5.27;;;;;;;;;;5049099;28;20190;-82
2022/03/10 12:14:27;;;;;;;8.80;4.67;;;;;;;;;;5049460;28;20597;-82
2022/03/10 12:16:54;;;;;;;4.67;4.13;;;;;;;;;;5048530;28;20237;-81
2022/03/10 12:20:11;;;;;;;5.53;4.97;;;;;;;;;;5049119;28;20300;-81
2022/03/10 12:22:38;;;;;;;4.37;3.97;;;;;;;;;;5049170;28;20208;-81
2022/03/10 12:25:23;;;;;;;4.23;3.83;;;;;;;;;;5049034;28;20197;-81
2022/03/10 12:27:51;;;;;;;4.70;4.30;;;;;;;;;;5048361;28;20212;-82
2022/03/10 12:30:22;;;;;;;6.27;4.37;;;;;;;;;;5048871;28;20600;-82
2022/03/10 12:32:52;;;;;;;4.23;3.83;;;;;;;;;;5048886;28;20193;-82
2022/03/10 12:35:21;;;;;;;4.63;4.23;;;;;;;;;;5049463;28;20198;-82
2022/03/10 12:37:49;;;;;;;4.20;3.80;;;;;;;;;;5049182;28;20193;-81
2022/03/10 12:40:19;;;;;;;4.37;4.03;;;;;;;;;;5048836;28;20197;-82
2022/03/10 12:42:47;;;;;;;3.43;3.17;;;;;;;;;;5048638;28;20233;-82
2022/03/10 12:45:15;;;;;;;4.43;4.03;;;;;;;;;;5048508;28;20258;-82
2022/03/10 12:47:47;;;;;;;4.73;4.23;;;;;;;;;;5048649;28;20209;-82
2022/03/10 12:50:15;;;;;;;4.77;4.27;;;;;;;;;;5048949;28;20232;-82
2022/03/10 12:52:42;;;;;;;6.47;5.20;;;;;;;;;;5048664;28;20198;-82
2022/03/10 12:55:11;;;;;;;4.97;4.47;;;;;;;;;;5048939;28;20281;-81
2022/03/10 12:57:38;;;;;;;5.07;4.57;;;;;;;;;;5048568;28;20198;-81
2022/03/10 13:00:18;;;;;;;4.43;4.03;;;;;;;;;;5048531;28;20285;-81
2022/03/10 13:02:47;;;;;;;5.87;4.23;;;;;;;;;;5048739;28;20635;-82
2022/03/10 13:05:20;;;;;;;5.00;4.37;;;;;;;;;;5048258;28;20670;-82
2022/03/10 13:07:48;;;;;;;6.60;6.00;;;;;;;;;;5048807;28;20193;-81
2022/03/10 13:10:16;;;;;;;5.53;4.93;;;;;;;;;;5048313;28;20232;-81
2022/03/10 13:12:47;;;;;;;10.23;8.30;;;;;;;;;;5048221;28;20211;-81
2022/03/10 13:15:19;;;;;;;5.43;4.93;;;;;;;;;;5048368;28;20187;-81
2022/03/10 13:17:49;;;;;;;5.93;5.27;;;;;;;;;;5048069;28;20726;-81
2022/03/10 13:20:17;;;;;;;7.47;6.77;;;;;;;;;;5048332;28;20222;-81
2022/03/10 13:22:46;;;;;;;7.33;5.90;;;;;;;;;;5048236;28;20301;-82
2022/03/10 13:25:15;;;;;;;9.07;7.77;;;;;;;;;;5048213;28;20194;-81
2022/03/10 13:27:43;;;;;;;5.40;4.80;;;;;;;;;;5048314;28;20202;-81
2022/03/10 13:30:17;;;;;;;5.53;5.03;;;;;;;;;;5048416;28;20297;-82
2022/03/10 13:32:47;;;;;;;10.63;5.53;;;;;;;;;;5047772;28;20193;-82
2022/03/10 13:35:16;;;;;;;4.93;4.53;;;;;;;;;;5048375;28;20285;-82
2022/03/10 13:37:44;;;;;;;4.50;4.10;;;;;;;;;;5047964;28;20198;-81
2022/03/10 13:40:13;;;;;;;4.50;4.17;;;;;;;;;;5050579;28;20286;-81
2022/03/10 13:42:41;;;;;;;4.93;4.10;;;;;;;;;;5051325;28;20786;-83
2022/03/10 13:45:09;;;;;;;5.00;4.23;;;;;;;;;;5051470;28;20679;-82
2022/03/10 13:47:50;;;;;;;4.93;4.33;;;;;;;;;;5051335;28;20198;-82
2022/03/10 13:50:21;;;;;;;3.90;3.60;;;;;;;;;;5051166;28;20222;-82
2022/03/10 13:52:51;;;;;;;3.60;3.30;;;;;;;;;;5051293;28;20277;-82
2022/03/10 13:55:18;;;;;;;4.57;4.07;;;;;;;;;;5051582;28;20239;-82
2022/03/10 13:57:46;;;;;;;5.00;4.50;;;;;;;;;;5051437;28;20557;-82
2022/03/10 14:00:14;;;;;;;6.40;5.70;;;;;;;;;;5050896;28;20202;-82
2022/03/10 14:02:50;;;;;;;4.40;4.00;;;;;;;;;;5051306;28;20194;-82
2022/03/10 14:05:20;;;;;;;4.77;4.20;;;;;;;;;;5051476;28;20185;-82
2022/03/10 14:07:54;;;;;;;5.23;3.80;;;;;;;;;;5051198;28;20198;-82
2022/03/10 14:10:28;;;;;;;5.13;4.67;;;;;;;;;;5051022;28;20225;-82
2022/03/10 14:12:57;;;;;;;7.50;5.70;;;;;;;;;;5050925;28;20728;-82
2022/03/10 14:15:28;;;;;;;4.27;3.97;;;;;;;;;;5051260;28;20216;-82
2022/03/10 14:17:58;;;;;;;4.87;3.90;;;;;;;;;;5050619;28;20230;-81
2022/03/10 14:20:43;;;;;;;4.30;3.90;;;;;;;;;;5051194;28;20194;-81
2022/03/10 14:23:10;;;;;;;4.10;3.77;;;;;;;;;;5050425;28;20198;-81
2022/03/10 14:25:44;;;;;;;6.57;4.57;;;;;;;;;;5050842;28;20194;-81
2022/03/10 14:28:11;;;;;;;4.73;4.17;;;;;;;;;;5051063;28;20186;-82
2022/03/10 14:30:39;;;;;;;4.67;3.70;;;;;;;;;;5050973;28;20316;-81
2022/03/10 14:33:06;;;;;;;5.43;3.53;;;;;;;;;;5050630;28;20205;-81
2022/03/10 14:35:35;;;;;;;4.63;3.20;;;;;;;;;;5050794;28;20234;-82
2022/03/10 14:38:04;;;;;;;5.90;4.97;;;;;;;;;;5050832;28;20589;-82
2022/03/10 14:40:31;;;;;;;3.33;3.07;;;;;;;;;;5051054;28;20193;-82
2022/03/10 14:43:01;;;;;;;3.67;3.30;;;;;;;;;;5050645;28;20198;-81
2022/03/10 14:45:28;;;;;;;4.47;4.07;;;;;;;;;;5050363;28;20201;-81
2022/03/10 14:47:56;;;;;;;4.63;3.47;;;;;;;;;;5050217;28;20289;-81
2022/03/10 14:50:23;;;;;;;5.17;4.47;;;;;;;;;;5050009;28;20251;-82
2022/03/10 14:52:51;;;;;;;5.37;4.50;;;;;;;;;;5050468;28;20228;-82
2022/03/10 14:55:20;;;;;;;4.90;3.50;;;;;;;;;;5050177;28;20202;-81
2022/03/10 14:57:47;;;;;;;4.63;4.23;;;;;;;;;;5050091;28;20205;-81
2022/03/10 15:00:16;;;;;;;5.70;4.40;;;;;;;;;;5050304;28;20204;-81
2022/03/10 15:02:43;;;;;;;5.20;4.70;;;;;;;;;;5050081;28;20198;-81